CZSJ

Sandy Lake Airport

Sandy Lake, Ontario, Canada
METAR CZSJ 140300Z AUTO 21004KT 160V240 9SM FEW007 M04/M05 A2967 RMK SLP069
Observed Flight Rules
Dec-14 @ 03:00 UTC (41 minutes ago) Visual Flight Rules
Wind Visibility Clouds
210° at 4 knots 9 miles
  • Few at 700' AGL
Temperatures Readings
Current -4°C / 25°F
Dewpoint -5°C / 23°F
Humidity 93%
Altimeter 29.67" Hg
Pressure 1006.9 hPa
Elevation 290
METAR CZSJ 140300Z AUTO 21004KT 160V240 9SM FEW007 M04/M05 A2967 RMK SLP069
Observed Flight Rules
Dec-14 @ 03:00 UTC
(41 minutes ago)
VFR
Wind Visibility
210° at 4 knots 9 miles
Clouds
  • Few at 700' AGL
Temperature Dewpoint
-4°C / 25°F -5°C / 23°F
Humidity Altimeter Pressure
93% 29.67" Hg 1006.9 hPa